sensor_id;sensor_type;location;lat;lon;timestamp;temperature;humidity
4739;DHT22;2383;48.632;10.156;2023-05-07T00:02:50;12.10;98.30
4739;DHT22;2383;48.632;10.156;2023-05-07T00:06:53;12.00;98.30
4739;DHT22;2383;48.632;10.156;2023-05-07T00:10:55;12.10;98.90
4739;DHT22;2383;48.632;10.156;2023-05-07T00:14:57;11.90;98.80
4739;DHT22;2383;48.632;10.156;2023-05-07T00:19:00;12.00;98.50
4739;DHT22;2383;48.632;10.156;2023-05-07T00:23:02;12.00;98.30
4739;DHT22;2383;48.632;10.156;2023-05-07T00:27:04;12.20;98.50
4739;DHT22;2383;48.632;10.156;2023-05-07T00:31:07;11.80;98.70
4739;DHT22;2383;48.632;10.156;2023-05-07T00:35:09;11.80;99.10
4739;DHT22;2383;48.632;10.156;2023-05-07T00:39:11;11.50;99.30
4739;DHT22;2383;48.632;10.156;2023-05-07T00:43:13;11.60;99.30
4739;DHT22;2383;48.632;10.156;2023-05-07T00:47:16;11.70;99.10
4739;DHT22;2383;48.632;10.156;2023-05-07T00:51:18;11.80;99.00
4739;DHT22;2383;48.632;10.156;2023-05-07T00:55:23;11.80;98.80
4739;DHT22;2383;48.632;10.156;2023-05-07T00:59:25;11.80;98.70
4739;DHT22;2383;48.632;10.156;2023-05-07T01:03:27;11.60;98.70
4739;DHT22;2383;48.632;10.156;2023-05-07T01:07:31;11.60;98.70
4739;DHT22;2383;48.632;10.156;2023-05-07T01:11:33;11.50;98.70
4739;DHT22;2383;48.632;10.156;2023-05-07T01:15:36;11.40;99.10
4739;DHT22;2383;48.632;10.156;2023-05-07T01:19:38;11.30;99.30
4739;DHT22;2383;48.632;10.156;2023-05-07T01:23:41;10.80;99.90
4739;DHT22;2383;48.632;10.156;2023-05-07T01:27:43;11.00;99.90
4739;DHT22;2383;48.632;10.156;2023-05-07T01:31:46;11.20;99.50
4739;DHT22;2383;48.632;10.156;2023-05-07T01:35:52;11.40;99.30
4739;DHT22;2383;48.632;10.156;2023-05-07T01:39:55;11.40;99.00
4739;DHT22;2383;48.632;10.156;2023-05-07T01:43:58;11.40;98.80
4739;DHT22;2383;48.632;10.156;2023-05-07T01:48:02;11.30;99.00
4739;DHT22;2383;48.632;10.156;2023-05-07T01:52:05;11.30;99.10
4739;DHT22;2383;48.632;10.156;2023-05-07T01:56:07;11.30;98.90
4739;DHT22;2383;48.632;10.156;2023-05-07T02:00:12;11.40;98.90
4739;DHT22;2383;48.632;10.156;2023-05-07T02:04:17;11.30;98.60
4739;DHT22;2383;48.632;10.156;2023-05-07T02:08:19;11.10;99.30
4739;DHT22;2383;48.632;10.156;2023-05-07T02:12:22;11.20;99.20
4739;DHT22;2383;48.632;10.156;2023-05-07T02:16:24;11.30;99.10
4739;DHT22;2383;48.632;10.156;2023-05-07T02:20:26;11.30;99.00
4739;DHT22;2383;48.632;10.156;2023-05-07T02:24:29;11.40;98.90
4739;DHT22;2383;48.632;10.156;2023-05-07T02:28:32;11.20;98.60
4739;DHT22;2383;48.632;10.156;2023-05-07T02:32:37;10.50;99.30
4739;DHT22;2383;48.632;10.156;2023-05-07T02:36:39;10.60;99.40
4739;DHT22;2383;48.632;10.156;2023-05-07T02:40:45;10.80;99.20
4739;DHT22;2383;48.632;10.156;2023-05-07T02:44:47;10.80;99.40
4739;DHT22;2383;48.632;10.156;2023-05-07T02:48:50;10.70;99.40
4739;DHT22;2383;48.632;10.156;2023-05-07T02:52:52;10.60;99.60
4739;DHT22;2383;48.632;10.156;2023-05-07T02:56:54;10.70;99.50
4739;DHT22;2383;48.632;10.156;2023-05-07T03:00:56;10.80;99.40
4739;DHT22;2383;48.632;10.156;2023-05-07T03:05:21;11.00;99.20
4739;DHT22;2383;48.632;10.156;2023-05-07T03:09:23;10.90;98.90
4739;DHT22;2383;48.632;10.156;2023-05-07T03:13:25;10.80;99.00
4739;DHT22;2383;48.632;10.156;2023-05-07T03:17:28;10.90;98.80
4739;DHT22;2383;48.632;10.156;2023-05-07T03:21:30;10.80;99.10
4739;DHT22;2383;48.632;10.156;2023-05-07T03:25:32;10.80;98.90
4739;DHT22;2383;48.632;10.156;2023-05-07T03:29:35;10.80;98.90
4739;DHT22;2383;48.632;10.156;2023-05-07T03:33:55;10.70;99.10
4739;DHT22;2383;48.632;10.156;2023-05-07T03:37:58;10.80;99.00
4739;DHT22;2383;48.632;10.156;2023-05-07T03:42:03;10.70;99.20
4739;DHT22;2383;48.632;10.156;2023-05-07T03:46:07;10.60;99.00
4739;DHT22;2383;48.632;10.156;2023-05-07T03:50:09;10.60;98.90
4739;DHT22;2383;48.632;10.156;2023-05-07T03:54:13;10.60;98.90
4739;DHT22;2383;48.632;10.156;2023-05-07T03:58:18;10.50;98.90
4739;DHT22;2383;48.632;10.156;2023-05-07T04:02:21;10.50;99.00
4739;DHT22;2383;48.632;10.156;2023-05-07T04:06:23;10.40;98.80
4739;DHT22;2383;48.632;10.156;2023-05-07T04:10:26;10.30;99.00
4739;DHT22;2383;48.632;10.156;2023-05-07T04:14:30;10.30;99.10
4739;DHT22;2383;48.632;10.156;2023-05-07T04:18:35;10.30;99.00
4739;DHT22;2383;48.632;10.156;2023-05-07T04:22:37;10.30;99.00
4739;DHT22;2383;48.632;10.156;2023-05-07T04:26:39;10.40;99.00
4739;DHT22;2383;48.632;10.156;2023-05-07T04:30:43;10.20;99.10
4739;DHT22;2383;48.632;10.156;2023-05-07T04:34:45;10.00;99.50
4739;DHT22;2383;48.632;10.156;2023-05-07T04:38:48;10.00;99.60
4739;DHT22;2383;48.632;10.156;2023-05-07T04:42:52;9.90;99.70
4739;DHT22;2383;48.632;10.156;2023-05-07T04:46:55;9.80;99.90
4739;DHT22;2383;48.632;10.156;2023-05-07T04:50:58;9.70;99.90
4739;DHT22;2383;48.632;10.156;2023-05-07T04:55:00;9.30;99.90
4739;DHT22;2383;48.632;10.156;2023-05-07T04:59:07;8.70;99.90
4739;DHT22;2383;48.632;10.156;2023-05-07T05:03:09;8.70;99.90
4739;DHT22;2383;48.632;10.156;2023-05-07T05:07:13;9.40;99.90
4739;DHT22;2383;48.632;10.156;2023-05-07T05:11:15;9.70;99.90
4739;DHT22;2383;48.632;10.156;2023-05-07T05:15:17;9.80;99.90
4739;DHT22;2383;48.632;10.156;2023-05-07T05:19:20;9.90;99.90
4739;DHT22;2383;48.632;10.156;2023-05-07T05:23:22;9.60;99.90
4739;DHT22;2383;48.632;10.156;2023-05-07T05:27:24;9.80;99.90
4739;DHT22;2383;48.632;10.156;2023-05-07T05:31:26;10.20;99.90
4739;DHT22;2383;48.632;10.156;2023-05-07T05:35:29;10.10;99.90
4739;DHT22;2383;48.632;10.156;2023-05-07T05:39:35;10.00;99.90
4739;DHT22;2383;48.632;10.156;2023-05-07T05:43:38;10.20;99.90
4739;DHT22;2383;48.632;10.156;2023-05-07T05:47:41;10.40;99.90
4739;DHT22;2383;48.632;10.156;2023-05-07T05:51:43;10.80;99.90
4739;DHT22;2383;48.632;10.156;2023-05-07T05:55:45;10.60;99.90
4739;DHT22;2383;48.632;10.156;2023-05-07T05:59:47;10.90;99.90
4739;DHT22;2383;48.632;10.156;2023-05-07T06:03:50;10.00;99.90
4739;DHT22;2383;48.632;10.156;2023-05-07T06:07:52;10.60;99.90
4739;DHT22;2383;48.632;10.156;2023-05-07T06:11:55;10.70;99.90
4739;DHT22;2383;48.632;10.156;2023-05-07T06:16:01;11.40;99.90
4739;DHT22;2383;48.632;10.156;2023-05-07T06:20:04;11.60;99.90
4739;DHT22;2383;48.632;10.156;2023-05-07T06:24:07;11.80;99.90
4739;DHT22;2383;48.632;10.156;2023-05-07T06:28:12;11.90;99.90
4739;DHT22;2383;48.632;10.156;2023-05-07T06:32:16;12.40;99.90
4739;DHT22;2383;48.632;10.156;2023-05-07T06:36:20;12.70;99.90
4739;DHT22;2383;48.632;10.156;2023-05-07T06:40:22;13.00;99.50
4739;DHT22;2383;48.632;10.156;2023-05-07T06:44:25;13.20;99.70
4739;DHT22;2383;48.632;10.156;2023-05-07T06:48:40;13.40;99.50
4739;DHT22;2383;48.632;10.156;2023-05-07T06:52:42;13.40;99.20
4739;DHT22;2383;48.632;10.156;2023-05-07T06:56:45;13.60;99.20
4739;DHT22;2383;48.632;10.156;2023-05-07T07:00:46;13.40;99.90
4739;DHT22;2383;48.632;10.156;2023-05-07T07:04:49;13.00;99.90
4739;DHT22;2383;48.632;10.156;2023-05-07T07:08:51;13.10;99.90
4739;DHT22;2383;48.632;10.156;2023-05-07T07:12:54;13.50;99.90
4739;DHT22;2383;48.632;10.156;2023-05-07T07:16:57;13.80;99.60
4739;DHT22;2383;48.632;10.156;2023-05-07T07:20:59;14.00;99.00
4739;DHT22;2383;48.632;10.156;2023-05-07T07:25:02;14.30;98.70
4739;DHT22;2383;48.632;10.156;2023-05-07T07:29:05;14.50;99.00
4739;DHT22;2383;48.632;10.156;2023-05-07T07:33:08;14.60;98.60
4739;DHT22;2383;48.632;10.156;2023-05-07T07:37:12;14.90;98.10
4739;DHT22;2383;48.632;10.156;2023-05-07T07:41:14;15.20;98.20
4739;DHT22;2383;48.632;10.156;2023-05-07T07:45:16;15.40;97.80
4739;DHT22;2383;48.632;10.156;2023-05-07T07:49:21;15.30;97.60
4739;DHT22;2383;48.632;10.156;2023-05-07T07:53:24;14.90;98.10
4739;DHT22;2383;48.632;10.156;2023-05-07T07:57:26;15.00;98.10
4739;DHT22;2383;48.632;10.156;2023-05-07T08:01:32;15.30;97.60
4739;DHT22;2383;48.632;10.156;2023-05-07T08:05:34;15.20;97.80
4739;DHT22;2383;48.632;10.156;2023-05-07T08:09:39;15.50;97.20
4739;DHT22;2383;48.632;10.156;2023-05-07T08:13:43;15.70;96.90
4739;DHT22;2383;48.632;10.156;2023-05-07T08:17:46;15.50;97.50
4739;DHT22;2383;48.632;10.156;2023-05-07T08:21:48;15.50;97.10
4739;DHT22;2383;48.632;10.156;2023-05-07T08:25:51;15.70;97.00
4739;DHT22;2383;48.632;10.156;2023-05-07T08:29:54;15.40;97.40
4739;DHT22;2383;48.632;10.156;2023-05-07T08:33:58;15.10;97.40
4739;DHT22;2383;48.632;10.156;2023-05-07T08:38:00;15.40;97.40
4739;DHT22;2383;48.632;10.156;2023-05-07T08:42:04;15.60;97.20
4739;DHT22;2383;48.632;10.156;2023-05-07T08:46:09;15.90;96.60
4739;DHT22;2383;48.632;10.156;2023-05-07T08:50:17;15.70;97.30
4739;DHT22;2383;48.632;10.156;2023-05-07T08:54:21;16.00;98.00
4739;DHT22;2383;48.632;10.156;2023-05-07T08:58:23;16.10;98.40
4739;DHT22;2383;48.632;10.156;2023-05-07T09:02:25;16.30;97.50
4739;DHT22;2383;48.632;10.156;2023-05-07T09:06:29;16.40;96.80
4739;DHT22;2383;48.632;10.156;2023-05-07T09:10:33;16.60;96.60
4739;DHT22;2383;48.632;10.156;2023-05-07T09:14:38;16.30;96.40
4739;DHT22;2383;48.632;10.156;2023-05-07T09:18:44;16.80;96.30
4739;DHT22;2383;48.632;10.156;2023-05-07T09:22:48;16.80;96.10
4739;DHT22;2383;48.632;10.156;2023-05-07T09:26:53;16.90;96.30
4739;DHT22;2383;48.632;10.156;2023-05-07T09:30:55;16.90;96.60
4739;DHT22;2383;48.632;10.156;2023-05-07T09:34:58;16.40;96.80
4739;DHT22;2383;48.632;10.156;2023-05-07T09:39:01;16.90;96.40
4739;DHT22;2383;48.632;10.156;2023-05-07T09:43:11;17.10;96.30
4739;DHT22;2383;48.632;10.156;2023-05-07T09:47:23;17.30;95.80
4739;DHT22;2383;48.632;10.156;2023-05-07T09:51:45;17.50;95.80
4739;DHT22;2383;48.632;10.156;2023-05-07T09:55:51;17.10;95.50
4739;DHT22;2383;48.632;10.156;2023-05-07T09:59:56;16.80;96.00
4739;DHT22;2383;48.632;10.156;2023-05-07T10:04:02;17.30;95.50
4739;DHT22;2383;48.632;10.156;2023-05-07T10:08:08;17.70;93.90
4739;DHT22;2383;48.632;10.156;2023-05-07T10:12:12;17.60;93.70
4739;DHT22;2383;48.632;10.156;2023-05-07T10:16:15;17.60;93.50
4739;DHT22;2383;48.632;10.156;2023-05-07T10:20:21;17.70;93.30
4739;DHT22;2383;48.632;10.156;2023-05-07T10:24:29;17.20;93.50
4739;DHT22;2383;48.632;10.156;2023-05-07T10:28:37;17.70;93.20
4739;DHT22;2383;48.632;10.156;2023-05-07T10:32:45;17.90;92.20
4739;DHT22;2383;48.632;10.156;2023-05-07T10:36:57;18.00;91.90
4739;DHT22;2383;48.632;10.156;2023-05-07T10:40:59;17.90;92.80
4739;DHT22;2383;48.632;10.156;2023-05-07T10:45:14;18.30;92.40
4739;DHT22;2383;48.632;10.156;2023-05-07T10:49:21;18.00;92.60
4739;DHT22;2383;48.632;10.156;2023-05-07T10:53:48;18.30;91.80
4739;DHT22;2383;48.632;10.156;2023-05-07T10:57:55;18.30;91.90
4739;DHT22;2383;48.632;10.156;2023-05-07T11:02:04;18.70;91.90
4739;DHT22;2383;48.632;10.156;2023-05-07T11:06:30;18.10;91.10
4739;DHT22;2383;48.632;10.156;2023-05-07T11:10:52;18.30;91.90
4739;DHT22;2383;48.632;10.156;2023-05-07T11:15:15;18.60;91.60
4739;DHT22;2383;48.632;10.156;2023-05-07T11:19:17;18.80;90.90
4739;DHT22;2383;48.632;10.156;2023-05-07T11:28:06;18.70;91.10
4739;DHT22;2383;48.632;10.156;2023-05-07T11:32:09;18.60;90.70
4739;DHT22;2383;48.632;10.156;2023-05-07T11:36:18;18.80;90.90
4739;DHT22;2383;48.632;10.156;2023-05-07T11:40:23;19.10;91.40
4739;DHT22;2383;48.632;10.156;2023-05-07T11:44:25;18.90;90.90
4739;DHT22;2383;48.632;10.156;2023-05-07T11:48:40;18.80;91.30
4739;DHT22;2383;48.632;10.156;2023-05-07T11:52:50;18.20;91.50
4739;DHT22;2383;48.632;10.156;2023-05-07T11:56:56;18.30;91.20
4739;DHT22;2383;48.632;10.156;2023-05-07T12:00:58;19.00;91.00
4739;DHT22;2383;48.632;10.156;2023-05-07T12:05:00;18.10;89.80
4739;DHT22;2383;48.632;10.156;2023-05-07T12:09:03;18.60;90.30
4739;DHT22;2383;48.632;10.156;2023-05-07T12:17:18;18.70;90.20
4739;DHT22;2383;48.632;10.156;2023-05-07T12:21:20;19.20;90.50
4739;DHT22;2383;48.632;10.156;2023-05-07T12:25:23;19.40;90.20
4739;DHT22;2383;48.632;10.156;2023-05-07T12:29:25;18.80;90.70
4739;DHT22;2383;48.632;10.156;2023-05-07T12:33:28;18.50;90.70
4739;DHT22;2383;48.632;10.156;2023-05-07T12:37:30;18.80;91.50
4739;DHT22;2383;48.632;10.156;2023-05-07T12:41:51;19.20;91.10
4739;DHT22;2383;48.632;10.156;2023-05-07T12:45:55;19.10;91.10
4739;DHT22;2383;48.632;10.156;2023-05-07T12:49:59;19.70;90.70
4739;DHT22;2383;48.632;10.156;2023-05-07T12:54:01;18.00;91.40
4739;DHT22;2383;48.632;10.156;2023-05-07T12:58:04;18.80;90.70
4739;DHT22;2383;48.632;10.156;2023-05-07T13:02:07;18.80;91.50
4739;DHT22;2383;48.632;10.156;2023-05-07T13:06:10;19.70;90.80
4739;DHT22;2383;48.632;10.156;2023-05-07T13:10:14;19.60;90.40
4739;DHT22;2383;48.632;10.156;2023-05-07T13:14:16;19.80;90.70
4739;DHT22;2383;48.632;10.156;2023-05-07T13:18:18;19.50;90.60
4739;DHT22;2383;48.632;10.156;2023-05-07T13:22:20;18.40;91.60
4739;DHT22;2383;48.632;10.156;2023-05-07T13:26:22;19.30;91.00
4739;DHT22;2383;48.632;10.156;2023-05-07T13:30:28;18.90;90.90
4739;DHT22;2383;48.632;10.156;2023-05-07T13:34:30;19.10;90.60
4739;DHT22;2383;48.632;10.156;2023-05-07T13:38:32;18.10;91.50
4739;DHT22;2383;48.632;10.156;2023-05-07T13:42:34;18.60;91.50
4739;DHT22;2383;48.632;10.156;2023-05-07T13:46:36;18.00;91.30
4739;DHT22;2383;48.632;10.156;2023-05-07T13:50:38;18.60;91.10
4739;DHT22;2383;48.632;10.156;2023-05-07T13:54:41;18.90;90.80
4739;DHT22;2383;48.632;10.156;2023-05-07T13:58:43;19.10;91.50
4739;DHT22;2383;48.632;10.156;2023-05-07T14:03:00;18.10;91.50
4739;DHT22;2383;48.632;10.156;2023-05-07T14:07:02;18.40;92.30
4739;DHT22;2383;48.632;10.156;2023-05-07T14:11:04;19.20;90.90
4739;DHT22;2383;48.632;10.156;2023-05-07T14:15:06;19.40;90.50
4739;DHT22;2383;48.632;10.156;2023-05-07T14:19:09;19.20;90.60
4739;DHT22;2383;48.632;10.156;2023-05-07T14:23:11;18.60;90.80
4739;DHT22;2383;48.632;10.156;2023-05-07T14:27:13;18.40;91.20
4739;DHT22;2383;48.632;10.156;2023-05-07T14:31:15;18.70;91.30
4739;DHT22;2383;48.632;10.156;2023-05-07T14:35:17;19.10;91.00
4739;DHT22;2383;48.632;10.156;2023-05-07T14:39:19;19.40;91.30
4739;DHT22;2383;48.632;10.156;2023-05-07T14:43:22;19.60;91.40
4739;DHT22;2383;48.632;10.156;2023-05-07T14:47:24;19.30;91.60
4739;DHT22;2383;48.632;10.156;2023-05-07T14:51:27;19.20;91.60
4739;DHT22;2383;48.632;10.156;2023-05-07T14:55:30;18.80;91.70
4739;DHT22;2383;48.632;10.156;2023-05-07T14:59:34;18.50;91.60
4739;DHT22;2383;48.632;10.156;2023-05-07T15:03:36;18.60;92.00
4739;DHT22;2383;48.632;10.156;2023-05-07T15:07:39;18.10;92.50
4739;DHT22;2383;48.632;10.156;2023-05-07T15:11:41;18.30;92.50
4739;DHT22;2383;48.632;10.156;2023-05-07T15:15:43;18.60;92.40
4739;DHT22;2383;48.632;10.156;2023-05-07T15:19:45;19.00;92.40
4739;DHT22;2383;48.632;10.156;2023-05-07T15:23:48;19.10;92.30
4739;DHT22;2383;48.632;10.156;2023-05-07T15:27:50;19.10;92.60
4739;DHT22;2383;48.632;10.156;2023-05-07T15:31:52;19.20;92.70
4739;DHT22;2383;48.632;10.156;2023-05-07T15:35:55;19.40;92.80
4739;DHT22;2383;48.632;10.156;2023-05-07T15:40:00;18.80;93.20
4739;DHT22;2383;48.632;10.156;2023-05-07T15:44:04;19.00;92.90
4739;DHT22;2383;48.632;10.156;2023-05-07T15:48:07;18.50;93.40
4739;DHT22;2383;48.632;10.156;2023-05-07T15:52:09;18.20;93.60
4739;DHT22;2383;48.632;10.156;2023-05-07T15:56:16;17.80;94.00
4739;DHT22;2383;48.632;10.156;2023-05-07T16:00:18;17.50;94.20
4739;DHT22;2383;48.632;10.156;2023-05-07T16:04:20;18.00;94.10
4739;DHT22;2383;48.632;10.156;2023-05-07T16:08:23;18.10;94.00
4739;DHT22;2383;48.632;10.156;2023-05-07T16:12:25;18.10;93.50
4739;DHT22;2383;48.632;10.156;2023-05-07T16:16:27;18.60;93.70
4739;DHT22;2383;48.632;10.156;2023-05-07T16:20:30;18.60;93.10
4739;DHT22;2383;48.632;10.156;2023-05-07T16:24:32;17.40;93.60
4739;DHT22;2383;48.632;10.156;2023-05-07T16:28:35;16.40;94.40
4739;DHT22;2383;48.632;10.156;2023-05-07T16:32:38;15.70;95.10
4739;DHT22;2383;48.632;10.156;2023-05-07T16:36:40;15.30;95.30
4739;DHT22;2383;48.632;10.156;2023-05-07T16:40:42;15.60;95.20
4739;DHT22;2383;48.632;10.156;2023-05-07T16:44:45;15.20;95.30
4739;DHT22;2383;48.632;10.156;2023-05-07T16:48:47;15.70;95.20
4739;DHT22;2383;48.632;10.156;2023-05-07T16:52:49;15.70;94.50
4739;DHT22;2383;48.632;10.156;2023-05-07T16:56:51;15.60;94.70
4739;DHT22;2383;48.632;10.156;2023-05-07T17:00:53;15.50;95.30
4739;DHT22;2383;48.632;10.156;2023-05-07T17:04:55;15.20;95.80
4739;DHT22;2383;48.632;10.156;2023-05-07T17:08:57;15.20;97.10
4739;DHT22;2383;48.632;10.156;2023-05-07T17:13:00;14.30;98.50
4739;DHT22;2383;48.632;10.156;2023-05-07T17:17:02;13.80;99.90
4739;DHT22;2383;48.632;10.156;2023-05-07T17:21:04;13.80;99.90
4739;DHT22;2383;48.632;10.156;2023-05-07T17:25:06;13.00;99.90
4739;DHT22;2383;48.632;10.156;2023-05-07T17:29:09;12.60;99.90
4739;DHT22;2383;48.632;10.156;2023-05-07T17:33:11;11.90;99.90
4739;DHT22;2383;48.632;10.156;2023-05-07T17:37:23;11.90;99.90
4739;DHT22;2383;48.632;10.156;2023-05-07T17:41:25;12.20;99.90
4739;DHT22;2383;48.632;10.156;2023-05-07T17:45:27;12.20;99.90
4739;DHT22;2383;48.632;10.156;2023-05-07T17:49:29;12.10;99.90
4739;DHT22;2383;48.632;10.156;2023-05-07T17:53:31;12.60;99.90
4739;DHT22;2383;48.632;10.156;2023-05-07T17:57:34;12.30;99.90
4739;DHT22;2383;48.632;10.156;2023-05-07T18:01:37;12.50;99.90
4739;DHT22;2383;48.632;10.156;2023-05-07T18:05:40;12.80;99.90
4739;DHT22;2383;48.632;10.156;2023-05-07T18:09:42;13.00;99.90
4739;DHT22;2383;48.632;10.156;2023-05-07T18:13:44;13.10;99.90
4739;DHT22;2383;48.632;10.156;2023-05-07T18:17:46;13.40;99.90
4739;DHT22;2383;48.632;10.156;2023-05-07T18:21:48;13.40;99.90
4739;DHT22;2383;48.632;10.156;2023-05-07T18:25:51;13.20;99.90
4739;DHT22;2383;48.632;10.156;2023-05-07T18:29:53;13.10;99.90
4739;DHT22;2383;48.632;10.156;2023-05-07T18:33:55;13.20;99.90
4739;DHT22;2383;48.632;10.156;2023-05-07T18:37:58;13.20;99.90
4739;DHT22;2383;48.632;10.156;2023-05-07T18:42:00;13.40;99.90
4739;DHT22;2383;48.632;10.156;2023-05-07T18:46:06;13.60;99.90
4739;DHT22;2383;48.632;10.156;2023-05-07T18:50:08;13.20;99.90
4739;DHT22;2383;48.632;10.156;2023-05-07T18:54:11;13.30;99.90
4739;DHT22;2383;48.632;10.156;2023-05-07T18:58:13;13.40;99.90
4739;DHT22;2383;48.632;10.156;2023-05-07T19:02:17;13.60;99.90
4739;DHT22;2383;48.632;10.156;2023-05-07T19:06:19;13.50;99.90
4739;DHT22;2383;48.632;10.156;2023-05-07T19:10:22;13.40;99.90
4739;DHT22;2383;48.632;10.156;2023-05-07T19:14:24;13.40;99.90
4739;DHT22;2383;48.632;10.156;2023-05-07T19:18:27;13.40;99.90
4739;DHT22;2383;48.632;10.156;2023-05-07T19:22:30;13.40;99.90
4739;DHT22;2383;48.632;10.156;2023-05-07T19:26:33;13.50;99.90
4739;DHT22;2383;48.632;10.156;2023-05-07T19:30:38;13.60;99.90
4739;DHT22;2383;48.632;10.156;2023-05-07T19:34:41;13.60;99.90
4739;DHT22;2383;48.632;10.156;2023-05-07T19:38:43;13.60;99.90
4739;DHT22;2383;48.632;10.156;2023-05-07T19:42:47;13.70;99.90
4739;DHT22;2383;48.632;10.156;2023-05-07T19:46:49;13.70;99.90
4739;DHT22;2383;48.632;10.156;2023-05-07T19:50:53;13.70;99.90
4739;DHT22;2383;48.632;10.156;2023-05-07T19:54:55;13.70;99.90
4739;DHT22;2383;48.632;10.156;2023-05-07T19:58:57;13.80;99.90
4739;DHT22;2383;48.632;10.156;2023-05-07T20:02:59;13.70;99.90
4739;DHT22;2383;48.632;10.156;2023-05-07T20:07:02;13.70;99.90
4739;DHT22;2383;48.632;10.156;2023-05-07T20:11:04;13.40;99.90
4739;DHT22;2383;48.632;10.156;2023-05-07T20:15:07;12.80;99.90
4739;DHT22;2383;48.632;10.156;2023-05-07T20:19:09;12.80;99.90
4739;DHT22;2383;48.632;10.156;2023-05-07T20:23:11;13.10;99.90
4739;DHT22;2383;48.632;10.156;2023-05-07T20:27:13;12.90;99.90
4739;DHT22;2383;48.632;10.156;2023-05-07T20:31:16;12.70;99.90
4739;DHT22;2383;48.632;10.156;2023-05-07T20:35:18;12.90;99.90
4739;DHT22;2383;48.632;10.156;2023-05-07T20:39:21;12.80;99.90
4739;DHT22;2383;48.632;10.156;2023-05-07T20:43:23;12.90;99.90
4739;DHT22;2383;48.632;10.156;2023-05-07T20:47:25;13.10;99.90
4739;DHT22;2383;48.632;10.156;2023-05-07T20:51:29;13.30;99.90
4739;DHT22;2383;48.632;10.156;2023-05-07T20:55:32;12.70;99.90
4739;DHT22;2383;48.632;10.156;2023-05-07T20:59:34;12.90;99.90
4739;DHT22;2383;48.632;10.156;2023-05-07T21:03:36;13.10;99.90
4739;DHT22;2383;48.632;10.156;2023-05-07T21:07:39;13.10;99.90
4739;DHT22;2383;48.632;10.156;2023-05-07T21:11:41;13.10;99.90
4739;DHT22;2383;48.632;10.156;2023-05-07T21:15:43;13.10;99.90
4739;DHT22;2383;48.632;10.156;2023-05-07T21:19:45;12.90;99.90
4739;DHT22;2383;48.632;10.156;2023-05-07T21:23:48;13.30;99.90
4739;DHT22;2383;48.632;10.156;2023-05-07T21:27:51;13.50;99.90
4739;DHT22;2383;48.632;10.156;2023-05-07T21:31:54;13.50;99.90
4739;DHT22;2383;48.632;10.156;2023-05-07T21:35:56;13.60;99.90
4739;DHT22;2383;48.632;10.156;2023-05-07T21:39:58;13.60;99.90
4739;DHT22;2383;48.632;10.156;2023-05-07T21:44:01;13.70;99.90
4739;DHT22;2383;48.632;10.156;2023-05-07T21:48:03;13.70;99.90
4739;DHT22;2383;48.632;10.156;2023-05-07T21:52:13;13.70;99.90
4739;DHT22;2383;48.632;10.156;2023-05-07T21:56:15;13.70;99.90
4739;DHT22;2383;48.632;10.156;2023-05-07T22:00:17;13.70;99.90
4739;DHT22;2383;48.632;10.156;2023-05-07T22:04:19;13.80;99.90
4739;DHT22;2383;48.632;10.156;2023-05-07T22:08:21;13.70;99.90
4739;DHT22;2383;48.632;10.156;2023-05-07T22:12:23;13.70;99.90
4739;DHT22;2383;48.632;10.156;2023-05-07T22:16:25;13.80;99.90
4739;DHT22;2383;48.632;10.156;2023-05-07T22:20:27;13.50;99.90
4739;DHT22;2383;48.632;10.156;2023-05-07T22:24:29;13.60;99.90
4739;DHT22;2383;48.632;10.156;2023-05-07T22:28:31;13.60;99.90
4739;DHT22;2383;48.632;10.156;2023-05-07T22:32:34;13.60;99.90
4739;DHT22;2383;48.632;10.156;2023-05-07T22:36:37;13.60;99.90
4739;DHT22;2383;48.632;10.156;2023-05-07T22:40:39;13.50;99.90
4739;DHT22;2383;48.632;10.156;2023-05-07T22:44:40;13.50;99.90
4739;DHT22;2383;48.632;10.156;2023-05-07T22:48:43;13.50;99.90
4739;DHT22;2383;48.632;10.156;2023-05-07T22:52:45;13.50;99.90
4739;DHT22;2383;48.632;10.156;2023-05-07T22:56:47;13.60;99.90
4739;DHT22;2383;48.632;10.156;2023-05-07T23:00:48;13.50;99.90
4739;DHT22;2383;48.632;10.156;2023-05-07T23:04:51;13.50;99.90
4739;DHT22;2383;48.632;10.156;2023-05-07T23:08:53;13.50;99.90
4739;DHT22;2383;48.632;10.156;2023-05-07T23:12:55;13.60;99.90
4739;DHT22;2383;48.632;10.156;2023-05-07T23:16:57;13.60;99.90
4739;DHT22;2383;48.632;10.156;2023-05-07T23:20:59;13.60;99.90
4739;DHT22;2383;48.632;10.156;2023-05-07T23:25:01;13.60;99.90
4739;DHT22;2383;48.632;10.156;2023-05-07T23:29:04;13.70;99.90
4739;DHT22;2383;48.632;10.156;2023-05-07T23:33:06;13.60;99.90
4739;DHT22;2383;48.632;10.156;2023-05-07T23:37:08;13.60;99.90
4739;DHT22;2383;48.632;10.156;2023-05-07T23:41:11;13.40;99.90
4739;DHT22;2383;48.632;10.156;2023-05-07T23:45:13;13.40;99.90
4739;DHT22;2383;48.632;10.156;2023-05-07T23:49:15;13.40;99.90
4739;DHT22;2383;48.632;10.156;2023-05-07T23:53:17;13.40;99.90
4739;DHT22;2383;48.632;10.156;2023-05-07T23:57:19;13.50;99.90
